Time;durP1;ratioP1;P1;durP2;ratioP2;P2;SDS_P1;SDS_P2;PMS_P1;PMS_P2;Temp;Humidity;BMP_temperature;BMP_pressure;BME280_temperature;BME280_humidity;BME280_pressure;Samples;Min_cycle;Max_cycle;Signal;HPM_P1;HPM_P2
2022/10/29 00:09:59;;;;;;;12.70;6.32;;;18.80;57.00;;;;;;21164133;28;20149;-60
2022/10/29 00:20:01;;;;;;;13.93;6.60;;;18.60;56.80;;;;;;21163393;28;20503;-60
2022/10/29 00:30:03;;;;;;;14.75;5.80;;;18.40;57.00;;;;;;21164234;28;20048;-60
2022/10/29 00:40:06;;;;;;;15.57;5.75;;;18.40;56.50;;;;;;21163892;28;20368;-59
2022/10/29 00:50:11;;;;;;;10.80;5.82;;;18.50;55.70;;;;;;21162001;28;20047;-59
2022/10/29 01:00:14;;;;;;;9.57;6.18;;;18.60;55.20;;;;;;21162808;28;20387;-60
2022/10/29 01:10:24;;;;;;;15.50;6.20;;;18.60;55.40;;;;;;21162442;28;20043;-59
2022/10/29 01:20:52;;;;;;;15.38;5.45;;;18.40;56.00;;;;;;21161029;28;20091;-60
2022/10/29 01:31:09;;;;;;;11.20;5.47;;;18.30;56.20;;;;;;21165163;28;20517;-60
2022/10/29 01:41:21;;;;;;;9.75;5.32;;;18.20;56.40;;;;;;21175742;28;20411;-61
2022/10/29 01:51:29;;;;;;;16.05;5.10;;;18.10;56.00;;;;;;21174539;28;20214;-60
2022/10/29 02:01:37;;;;;;;11.25;5.65;;;18.00;56.10;;;;;;21173754;28;20052;-60
2022/10/29 02:12:02;;;;;;;9.85;5.47;;;18.00;55.30;;;;;;21173836;28;20047;-59
2022/10/29 02:22:04;;;;;;;14.23;5.50;;;18.00;55.40;;;;;;21172928;28;20054;-58
2022/10/29 02:32:07;;;;;;;13.25;5.50;;;17.90;56.30;;;;;;21171933;28;20051;-58
2022/10/29 02:42:09;;;;;;;16.50;5.03;;;17.80;56.40;;;;;;21170331;28;20383;-59
2022/10/29 02:52:13;;;;;;;10.07;5.13;;;17.70;56.70;;;;;;21170738;28;20088;-59
2022/10/29 03:02:15;;;;;;;13.65;5.05;;;17.60;57.00;;;;;;21169352;28;20059;-60
2022/10/29 03:12:20;;;;;;;11.40;5.10;;;17.50;57.30;;;;;;21168592;28;20044;-59
2022/10/29 03:22:21;;;;;;;13.55;4.82;;;17.50;57.40;;;;;;21167064;28;20052;-60
2022/10/29 03:32:24;;;;;;;13.02;5.15;;;17.40;57.90;;;;;;21166821;28;20044;-60
2022/10/29 03:42:26;;;;;;;9.82;5.18;;;17.40;57.90;;;;;;21166201;28;20124;-60
2022/10/29 03:52:28;;;;;;;13.77;5.97;;;17.30;58.40;;;;;;21165764;28;20127;-59
2022/10/29 04:02:30;;;;;;;10.57;5.68;;;17.20;58.70;;;;;;21164977;28;20055;-60
2022/10/29 04:12:32;;;;;;;11.77;6.20;;;17.20;59.00;;;;;;21167435;28;20137;-61
2022/10/29 04:22:34;;;;;;;13.40;5.72;;;17.10;59.60;;;;;;21165055;28;20598;-61
2022/10/29 04:32:36;;;;;;;15.05;6.47;;;17.00;59.80;;;;;;21163495;28;20048;-60
2022/10/29 04:42:38;;;;;;;13.95;6.78;;;17.00;59.90;;;;;;21144281;28;20140;-61
2022/10/29 04:52:40;;;;;;;14.55;6.85;;;17.00;59.70;;;;;;21161903;28;20044;-61
2022/10/29 05:02:49;;;;;;;17.45;6.25;;;17.00;59.80;;;;;;21162134;28;20388;-60
2022/10/29 05:12:57;;;;;;;13.48;6.95;;;17.00;59.70;;;;;;21176462;28;20073;-60
2022/10/29 05:23:04;;;;;;;11.25;6.60;;;17.00;59.40;;;;;;21178691;28;20136;-60
2022/10/29 05:33:10;;;;;;;15.15;6.15;;;16.90;59.70;;;;;;21177847;28;20052;-59
2022/10/29 05:43:14;;;;;;;12.57;6.03;;;16.80;60.00;;;;;;21175496;28;20134;-60
2022/10/29 05:53:16;;;;;;;13.70;6.80;;;16.80;59.90;;;;;;21174854;28;20130;-60
2022/10/29 06:03:20;;;;;;;14.55;6.75;;;16.90;60.10;;;;;;21174502;28;20054;-60
2022/10/29 06:13:22;;;;;;;15.35;6.75;;;16.80;60.00;;;;;;21173704;28;20051;-60
2022/10/29 06:23:24;;;;;;;11.88;6.45;;;16.70;60.00;;;;;;21172466;28;20094;-61
2022/10/29 06:33:26;;;;;;;10.75;6.65;;;16.70;60.30;;;;;;21172789;28;20048;-59
2022/10/29 06:43:28;;;;;;;16.05;7.28;;;16.60;60.70;;;;;;21171255;28;20073;-58
2022/10/29 06:53:29;;;;;;;13.82;7.65;;;16.60;60.50;;;;;;21169895;28;20080;-60
2022/10/29 07:03:31;;;;;;;14.73;7.05;;;16.50;60.80;;;;;;21170211;28;20483;-59
2022/10/29 07:13:33;;;;;;;16.45;7.53;;;16.50;60.50;;;;;;21169580;28;20127;-60
2022/10/29 07:23:34;;;;;;;24.48;8.25;;;16.50;60.70;;;;;;21168380;28;20048;-61
2022/10/29 07:33:36;;;;;;;14.75;7.72;;;16.50;60.70;;;;;;21166540;28;20048;-59
2022/10/29 07:43:37;;;;;;;12.90;7.03;;;16.60;59.80;;;;;;21166364;28;20525;-60
2022/10/29 07:53:39;;;;;;;17.33;6.28;;;16.90;57.80;;;;;;21166272;28;20054;-61
2022/10/29 08:03:41;;;;;;;12.85;5.53;;;17.20;55.70;;;;;;21164414;28;20104;-61
2022/10/29 08:13:42;;;;;;;15.10;6.68;;;17.40;54.30;;;;;;21164988;28;20055;-60
2022/10/29 08:23:44;;;;;;;10.15;6.10;;;17.70;54.20;;;;;;21163177;28;20051;-61
2022/10/29 08:33:49;;;;;;;14.40;6.07;;;18.00;52.70;;;;;;21163724;28;20039;-60
2022/10/29 08:44:13;;;;;;;12.80;5.47;;;18.20;51.00;;;;;;21172580;28;20495;-60
2022/10/29 08:54:16;;;;;;;9.13;4.75;;;18.40;49.30;;;;;;21179694;28;20040;-61
2022/10/29 09:04:35;;;;;;;11.10;4.50;;;18.70;46.80;;;;;;21178964;28;20055;-61
2022/10/29 09:14:49;;;;;;;7.40;4.13;;;18.90;45.80;;;;;;21178039;28;20043;-61
2022/10/29 09:24:56;;;;;;;;;;;19.10;45.20;;;;;;21177729;28;20178;-60
2022/10/29 09:35:13;;;;;;;10.85;5.15;;;19.20;45.30;;;;;;21176669;28;19919;-60
2022/10/29 09:45:19;;;;;;;9.95;6.40;;;19.50;44.30;;;;;;21175250;28;20488;-59
2022/10/29 09:55:23;;;;;;;11.80;4.45;;;19.70;43.40;;;;;;21173876;28;20123;-60
2022/10/29 10:05:29;;;;;;;7.05;4.65;;;20.20;42.40;;;;;;21173210;28;20479;-62
2022/10/29 10:15:35;;;;;;;11.25;4.82;;;20.40;41.50;;;;;;21172184;28;20059;-59
2022/10/29 10:25:39;;;;;;;7.32;3.45;;;20.40;41.70;;;;;;21171953;28;20079;-61
2022/10/29 10:35:40;;;;;;;;;;;20.70;41.20;;;;;;21171195;28;20044;-60
2022/10/29 10:45:42;;;;;;;7.72;4.35;;;20.90;40.70;;;;;;21171238;28;20324;-60
2022/10/29 10:55:56;;;;;;;8.15;4.85;;;21.10;40.20;;;;;;21170702;28;20051;-60
2022/10/29 11:06:11;;;;;;;7.07;4.15;;;21.30;40.30;;;;;;21167930;28;20051;-63
2022/10/29 11:16:36;;;;;;;7.90;4.05;;;21.50;39.80;;;;;;21167705;28;20056;-61
2022/10/29 11:27:03;;;;;;;8.70;5.20;;;21.70;39.80;;;;;;21167245;28;20402;-62
2022/10/29 11:37:12;;;;;;;13.18;4.38;;;21.90;39.20;;;;;;20824380;28;20449;-60
2022/10/29 11:47:35;;;;;;;13.20;4.78;;;21.90;39.00;;;;;;20822837;28;20045;-59
2022/10/29 11:57:54;;;;;;;11.60;4.78;;;21.90;39.00;;;;;;20823142;28;20053;-59
2022/10/29 12:08:07;;;;;;;11.45;4.22;;;22.10;38.30;;;;;;20915868;28;20087;-60
2022/10/29 12:18:27;;;;;;;8.55;3.92;;;22.20;38.00;;;;;;21164414;28;20475;-60
2022/10/29 12:28:41;;;;;;;8.52;4.53;;;22.60;37.90;;;;;;21164770;28;20442;-61
2022/10/29 12:38:49;;;;;;;12.25;4.93;;;22.60;37.80;;;;;;21162968;28;20047;-63
2022/10/29 12:48:56;;;;;;;8.13;3.78;;;22.70;38.10;;;;;;21162705;28;20138;-59
2022/10/29 12:59:29;;;;;;;10.98;4.78;;;22.90;37.50;;;;;;21162443;28;20093;-61
2022/10/29 13:09:35;;;;;;;8.60;4.37;;;22.90;37.70;;;;;;21160972;28;20043;-60
2022/10/29 13:19:44;;;;;;;8.55;4.88;;;23.00;37.70;;;;;;21160075;28;20069;-61
2022/10/29 13:30:13;;;;;;;10.73;5.00;;;23.10;37.40;;;;;;21169003;28;20047;-61
2022/10/29 13:40:21;;;;;;;9.45;4.43;;;23.10;36.90;;;;;;21175845;28;20137;-60
2022/10/29 13:50:24;;;;;;;12.20;5.63;;;23.20;36.80;;;;;;21174434;28;20047;-61
2022/10/29 14:00:28;;;;;;;8.17;4.63;;;23.40;36.80;;;;;;21174344;28;20104;-59
2022/10/29 14:10:58;;;;;;;7.50;4.65;;;23.40;36.70;;;;;;21172987;28;20051;-61
2022/10/29 14:21:01;;;;;;;10.63;4.57;;;23.60;36.10;;;;;;21169807;28;20051;-60
2022/10/29 14:31:12;;;;;;;15.15;4.72;;;23.60;36.10;;;;;;21173154;28;20129;-60
2022/10/29 14:41:15;;;;;;;8.93;4.20;;;23.70;36.00;;;;;;21171186;28;20048;-59
2022/10/29 14:51:21;;;;;;;13.65;5.40;;;23.70;36.10;;;;;;21169941;28;20043;-59
2022/10/29 15:01:23;;;;;;;12.80;5.13;;;23.80;35.90;;;;;;21170216;28;20509;-60
2022/10/29 15:11:33;;;;;;;12.05;5.10;;;23.70;35.80;;;;;;21169893;28;20047;-61
2022/10/29 15:21:39;;;;;;;12.70;6.07;;;23.70;36.00;;;;;;21167510;28;20483;-61
2022/10/29 15:31:52;;;;;;;13.05;6.00;;;23.60;36.30;;;;;;21168133;28;20074;-61
2022/10/29 15:42:19;;;;;;;11.35;4.43;;;23.60;36.10;;;;;;21166051;28;20047;-62
2022/10/29 15:52:25;;;;;;;7.32;4.05;;;23.50;36.50;;;;;;21165869;28;20092;-60
2022/10/29 16:02:27;;;;;;;12.48;4.57;;;23.40;36.40;;;;;;21167614;28;20448;-59
2022/10/29 16:12:29;;;;;;;7.68;4.90;;;23.30;36.90;;;;;;21165623;28;20475;-60
2022/10/29 16:22:31;;;;;;;;;;;23.30;37.10;;;;;;21164778;28;20558;-60
2022/10/29 16:32:33;;;;;;;8.02;4.00;;;23.20;37.30;;;;;;21163828;28;19924;-61
2022/10/29 16:42:36;;;;;;;10.50;4.27;;;23.00;40.00;;;;;;21163068;28;20051;-62
2022/10/29 16:52:37;;;;;;;13.13;3.80;;;22.70;40.80;;;;;;21161881;28;20055;-63
2022/10/29 17:02:43;;;;;;;12.65;5.50;;;22.60;41.30;;;;;;21167907;28;20510;-65
2022/10/29 17:12:46;;;;;;;10.30;5.05;;;22.50;40.70;;;;;;21179381;28;20044;-61
2022/10/29 17:22:48;;;;;;;11.70;4.67;;;22.30;40.40;;;;;;21178241;28;20100;-60
2022/10/29 17:32:49;;;;;;;9.52;4.53;;;22.10;41.00;;;;;;21176637;28;20130;-61
2022/10/29 17:42:51;;;;;;;9.35;4.75;;;22.00;40.80;;;;;;21175975;28;20408;-61
2022/10/29 17:52:56;;;;;;;10.03;4.47;;;21.90;40.60;;;;;;21176083;28;20406;-60
2022/10/29 18:02:58;;;;;;;9.60;5.10;;;21.70;40.90;;;;;;21174453;28;20047;-60
2022/10/29 18:13:00;;;;;;;9.35;5.88;;;21.60;40.90;;;;;;21173563;28;20047;-61
2022/10/29 18:23:02;;;;;;;10.02;5.30;;;21.60;40.70;;;;;;21173039;28;20069;-61
2022/10/29 18:33:03;;;;;;;10.45;6.30;;;21.50;41.50;;;;;;21173398;28;20441;-62
2022/10/29 18:43:05;;;;;;;9.02;4.93;;;21.40;40.60;;;;;;21172058;28;20053;-60
2022/10/29 18:53:07;;;;;;;11.88;5.20;;;21.40;40.20;;;;;;21171217;28;20040;-61
2022/10/29 19:03:10;;;;;;;12.27;5.32;;;21.40;40.00;;;;;;21169622;28;20086;-60
2022/10/29 19:13:11;;;;;;;14.93;7.67;;;21.30;40.50;;;;;;21169171;28;20134;-60
2022/10/29 19:23:14;;;;;;;16.15;7.97;;;21.20;41.70;;;;;;21166965;28;20052;-61
2022/10/29 19:33:16;;;;;;;14.55;7.13;;;20.90;42.50;;;;;;21167800;28;20468;-62
2022/10/29 19:43:17;;;;;;;11.43;6.32;;;20.90;42.40;;;;;;21167048;28;20044;-60
2022/10/29 19:53:19;;;;;;;16.35;8.07;;;20.90;41.70;;;;;;21166514;28;20047;-59
2022/10/29 20:03:21;;;;;;;17.27;7.28;;;20.90;42.40;;;;;;21165466;28;20144;-61
2022/10/29 20:13:23;;;;;;;17.58;8.15;;;20.80;42.20;;;;;;21165610;28;20443;-61
2022/10/29 20:23:24;;;;;;;18.67;9.40;;;20.70;43.50;;;;;;21163066;28;20039;-62
2022/10/29 20:33:25;;;;;;;17.77;8.52;;;20.70;43.70;;;;;;21163621;28;20059;-62
2022/10/29 20:43:27;;;;;;;15.55;9.05;;;20.50;44.10;;;;;;21162972;28;20495;-62
2022/10/29 20:53:28;;;;;;;12.25;7.25;;;20.40;44.20;;;;;;21162767;28;20545;-60
2022/10/29 21:03:32;;;;;;;17.13;8.75;;;20.20;44.50;;;;;;21163027;28;20189;-61
2022/10/29 21:13:34;;;;;;;;;;;20.10;45.20;;;;;;21162891;28;20464;-60
2022/10/29 21:23:37;;;;;;;15.55;8.43;;;19.90;47.00;;;;;;21161187;28;19927;-61
2022/10/29 21:33:39;;;;;;;17.88;7.85;;;19.70;48.00;;;;;;21161400;28;20126;-61
2022/10/29 21:43:41;;;;;;;14.88;7.78;;;19.60;48.30;;;;;;21160669;28;20064;-60
2022/10/29 21:53:43;;;;;;;13.27;7.25;;;19.50;48.70;;;;;;21172847;28;20448;-61
2022/10/29 22:03:46;;;;;;;13.07;6.82;;;19.40;49.40;;;;;;21175707;28;20050;-60
2022/10/29 22:13:48;;;;;;;12.53;7.47;;;19.30;49.70;;;;;;21174011;28;20051;-60
2022/10/29 22:23:54;;;;;;;12.60;6.57;;;19.20;50.30;;;;;;21173677;28;20054;-59
2022/10/29 22:33:55;;;;;;;26.95;8.57;;;19.20;50.70;;;;;;21173154;28;20039;-62
2022/10/29 22:43:58;;;;;;;11.13;7.60;;;19.10;51.10;;;;;;21172134;28;20048;-62
2022/10/29 22:54:00;;;;;;;11.27;6.85;;;19.20;51.00;;;;;;21170363;28;20052;-61
2022/10/29 23:04:03;;;;;;;16.33;6.95;;;19.40;49.20;;;;;;21168019;28;20468;-62
2022/10/29 23:14:05;;;;;;;13.02;7.07;;;19.50;46.60;;;;;;21168721;28;20480;-61
2022/10/29 23:24:07;;;;;;;9.38;5.30;;;19.40;47.20;;;;;;21167436;28;20161;-61
2022/10/29 23:34:11;;;;;;;12.57;5.85;;;19.10;50.90;;;;;;21167131;28;20139;-61
2022/10/29 23:44:13;;;;;;;10.40;5.33;;;18.80;51.70;;;;;;21166598;28;20100;-61
2022/10/29 23:54:16;;;;;;;16.17;5.88;;;18.60;52.00;;;;;;21166237;28;20122;-58
